sensor_id;sensor_type;location;lat;lon;timestamp;temperature;humidity
21216;DHT22;10765;50.954;5.322;2023-12-07T00:01:52;1.40;99.90
21216;DHT22;10765;50.954;5.322;2023-12-07T00:04:19;1.30;99.90
21216;DHT22;10765;50.954;5.322;2023-12-07T00:06:46;1.40;99.90
21216;DHT22;10765;50.954;5.322;2023-12-07T00:09:13;1.50;99.90
21216;DHT22;10765;50.954;5.322;2023-12-07T00:11:41;1.60;99.90
21216;DHT22;10765;50.954;5.322;2023-12-07T00:14:08;1.70;99.90
21216;DHT22;10765;50.954;5.322;2023-12-07T00:16:35;1.60;99.90
21216;DHT22;10765;50.954;5.322;2023-12-07T00:19:02;1.60;99.90
21216;DHT22;10765;50.954;5.322;2023-12-07T00:21:28;1.50;99.90
21216;DHT22;10765;50.954;5.322;2023-12-07T00:23:55;1.60;99.90
21216;DHT22;10765;50.954;5.322;2023-12-07T00:26:22;1.60;99.90
21216;DHT22;10765;50.954;5.322;2023-12-07T00:28:50;1.60;99.90
21216;DHT22;10765;50.954;5.322;2023-12-07T00:31:17;1.70;99.90
21216;DHT22;10765;50.954;5.322;2023-12-07T00:33:46;1.70;99.90
21216;DHT22;10765;50.954;5.322;2023-12-07T00:36:12;1.80;99.90
21216;DHT22;10765;50.954;5.322;2023-12-07T00:38:39;1.70;99.90
21216;DHT22;10765;50.954;5.322;2023-12-07T00:41:07;1.70;99.90
21216;DHT22;10765;50.954;5.322;2023-12-07T00:43:34;1.70;99.90
21216;DHT22;10765;50.954;5.322;2023-12-07T00:46:02;1.70;99.90
21216;DHT22;10765;50.954;5.322;2023-12-07T00:48:30;1.80;99.90
21216;DHT22;10765;50.954;5.322;2023-12-07T00:50:57;2.00;99.90
21216;DHT22;10765;50.954;5.322;2023-12-07T00:53:24;2.10;99.90
21216;DHT22;10765;50.954;5.322;2023-12-07T00:55:50;2.30;99.90
21216;DHT22;10765;50.954;5.322;2023-12-07T00:58:17;2.20;99.90
21216;DHT22;10765;50.954;5.322;2023-12-07T01:00:44;2.00;99.90
21216;DHT22;10765;50.954;5.322;2023-12-07T01:03:12;2.00;99.90
21216;DHT22;10765;50.954;5.322;2023-12-07T01:05:39;1.90;99.90
21216;DHT22;10765;50.954;5.322;2023-12-07T01:08:06;1.90;99.90
21216;DHT22;10765;50.954;5.322;2023-12-07T01:10:33;2.10;99.90
21216;DHT22;10765;50.954;5.322;2023-12-07T01:13:00;2.30;99.90
21216;DHT22;10765;50.954;5.322;2023-12-07T01:15:27;2.40;99.90
21216;DHT22;10765;50.954;5.322;2023-12-07T01:17:54;2.10;99.90
21216;DHT22;10765;50.954;5.322;2023-12-07T01:20:22;2.10;99.90
21216;DHT22;10765;50.954;5.322;2023-12-07T01:22:49;2.10;99.90
21216;DHT22;10765;50.954;5.322;2023-12-07T01:25:16;2.00;99.90
21216;DHT22;10765;50.954;5.322;2023-12-07T01:27:47;2.10;99.90
21216;DHT22;10765;50.954;5.322;2023-12-07T01:30:14;2.30;99.90
21216;DHT22;10765;50.954;5.322;2023-12-07T01:32:41;2.40;99.90
21216;DHT22;10765;50.954;5.322;2023-12-07T01:35:08;2.30;99.90
21216;DHT22;10765;50.954;5.322;2023-12-07T01:37:37;2.40;99.90
21216;DHT22;10765;50.954;5.322;2023-12-07T01:40:05;2.20;99.90
21216;DHT22;10765;50.954;5.322;2023-12-07T01:42:36;2.20;99.90
21216;DHT22;10765;50.954;5.322;2023-12-07T01:45:03;2.40;99.90
21216;DHT22;10765;50.954;5.322;2023-12-07T01:47:32;2.50;99.90
21216;DHT22;10765;50.954;5.322;2023-12-07T01:50:00;2.50;99.90
21216;DHT22;10765;50.954;5.322;2023-12-07T01:52:30;2.40;99.90
21216;DHT22;10765;50.954;5.322;2023-12-07T01:54:59;2.40;99.90
21216;DHT22;10765;50.954;5.322;2023-12-07T01:57:26;2.20;99.90
21216;DHT22;10765;50.954;5.322;2023-12-07T01:59:53;2.30;99.90
21216;DHT22;10765;50.954;5.322;2023-12-07T02:02:20;2.40;99.90
21216;DHT22;10765;50.954;5.322;2023-12-07T02:04:47;2.40;99.90
21216;DHT22;10765;50.954;5.322;2023-12-07T02:07:14;2.40;99.90
21216;DHT22;10765;50.954;5.322;2023-12-07T02:09:42;2.40;99.90
21216;DHT22;10765;50.954;5.322;2023-12-07T02:12:10;2.30;99.90
21216;DHT22;10765;50.954;5.322;2023-12-07T02:14:37;2.20;99.90
21216;DHT22;10765;50.954;5.322;2023-12-07T02:17:15;2.00;99.90
21216;DHT22;10765;50.954;5.322;2023-12-07T02:19:55;2.10;99.90
21216;DHT22;10765;50.954;5.322;2023-12-07T02:22:26;2.40;99.90
21216;DHT22;10765;50.954;5.322;2023-12-07T02:25:04;2.40;99.90
21216;DHT22;10765;50.954;5.322;2023-12-07T02:27:40;2.40;99.90
21216;DHT22;10765;50.954;5.322;2023-12-07T02:30:08;2.40;99.90
21216;DHT22;10765;50.954;5.322;2023-12-07T02:32:36;2.30;99.90
21216;DHT22;10765;50.954;5.322;2023-12-07T02:35:03;2.30;99.90
21216;DHT22;10765;50.954;5.322;2023-12-07T02:37:35;2.40;99.90
21216;DHT22;10765;50.954;5.322;2023-12-07T02:40:05;2.30;99.90
21216;DHT22;10765;50.954;5.322;2023-12-07T02:42:36;2.10;99.90
21216;DHT22;10765;50.954;5.322;2023-12-07T02:45:06;2.00;99.90
21216;DHT22;10765;50.954;5.322;2023-12-07T02:47:33;2.10;99.90
21216;DHT22;10765;50.954;5.322;2023-12-07T02:50:01;2.20;99.90
21216;DHT22;10765;50.954;5.322;2023-12-07T02:52:28;2.30;99.90
21216;DHT22;10765;50.954;5.322;2023-12-07T02:54:55;2.30;99.90
21216;DHT22;10765;50.954;5.322;2023-12-07T02:57:21;2.30;99.90
21216;DHT22;10765;50.954;5.322;2023-12-07T02:59:48;2.30;99.90
21216;DHT22;10765;50.954;5.322;2023-12-07T03:02:17;2.30;99.90
21216;DHT22;10765;50.954;5.322;2023-12-07T03:04:44;2.20;99.90
21216;DHT22;10765;50.954;5.322;2023-12-07T03:07:11;2.10;99.90
21216;DHT22;10765;50.954;5.322;2023-12-07T03:09:38;2.20;99.90
21216;DHT22;10765;50.954;5.322;2023-12-07T03:12:06;2.20;99.90
21216;DHT22;10765;50.954;5.322;2023-12-07T03:14:33;2.20;99.90
21216;DHT22;10765;50.954;5.322;2023-12-07T03:17:00;2.30;99.90
21216;DHT22;10765;50.954;5.322;2023-12-07T03:19:28;2.30;99.90
21216;DHT22;10765;50.954;5.322;2023-12-07T03:21:55;2.30;99.90
21216;DHT22;10765;50.954;5.322;2023-12-07T03:24:23;2.40;99.90
21216;DHT22;10765;50.954;5.322;2023-12-07T03:26:50;2.40;99.90
21216;DHT22;10765;50.954;5.322;2023-12-07T03:29:16;2.50;99.90
21216;DHT22;10765;50.954;5.322;2023-12-07T03:31:43;2.60;99.90
21216;DHT22;10765;50.954;5.322;2023-12-07T03:34:10;2.60;99.90
21216;DHT22;10765;50.954;5.322;2023-12-07T03:36:42;2.50;99.90
21216;DHT22;10765;50.954;5.322;2023-12-07T03:39:09;2.40;99.90
21216;DHT22;10765;50.954;5.322;2023-12-07T03:41:36;2.30;99.90
21216;DHT22;10765;50.954;5.322;2023-12-07T03:44:03;2.20;99.90
21216;DHT22;10765;50.954;5.322;2023-12-07T03:46:30;2.10;99.90
21216;DHT22;10765;50.954;5.322;2023-12-07T03:48:57;2.20;99.90
21216;DHT22;10765;50.954;5.322;2023-12-07T03:51:25;2.20;99.90
21216;DHT22;10765;50.954;5.322;2023-12-07T03:53:54;2.30;99.90
21216;DHT22;10765;50.954;5.322;2023-12-07T03:56:25;2.30;99.90
21216;DHT22;10765;50.954;5.322;2023-12-07T03:58:53;2.20;99.90
21216;DHT22;10765;50.954;5.322;2023-12-07T04:01:22;2.20;99.90
21216;DHT22;10765;50.954;5.322;2023-12-07T04:03:50;2.10;99.90
21216;DHT22;10765;50.954;5.322;2023-12-07T04:06:17;2.10;99.90
21216;DHT22;10765;50.954;5.322;2023-12-07T04:08:44;2.20;99.90
21216;DHT22;10765;50.954;5.322;2023-12-07T04:11:13;2.20;99.90
21216;DHT22;10765;50.954;5.322;2023-12-07T04:13:40;2.30;99.90
21216;DHT22;10765;50.954;5.322;2023-12-07T04:16:08;2.20;99.90
21216;DHT22;10765;50.954;5.322;2023-12-07T04:18:36;2.20;99.90
21216;DHT22;10765;50.954;5.322;2023-12-07T04:21:03;2.10;99.90
21216;DHT22;10765;50.954;5.322;2023-12-07T04:23:31;2.20;99.90
21216;DHT22;10765;50.954;5.322;2023-12-07T04:25:58;2.10;99.90
21216;DHT22;10765;50.954;5.322;2023-12-07T04:28:26;2.00;99.90
21216;DHT22;10765;50.954;5.322;2023-12-07T04:30:53;2.20;99.90
21216;DHT22;10765;50.954;5.322;2023-12-07T04:33:20;2.40;99.90
21216;DHT22;10765;50.954;5.322;2023-12-07T04:35:47;2.30;99.90
21216;DHT22;10765;50.954;5.322;2023-12-07T04:38:14;2.50;99.90
21216;DHT22;10765;50.954;5.322;2023-12-07T04:40:41;2.40;99.90
21216;DHT22;10765;50.954;5.322;2023-12-07T04:43:08;2.30;99.90
21216;DHT22;10765;50.954;5.322;2023-12-07T04:45:36;2.20;99.90
21216;DHT22;10765;50.954;5.322;2023-12-07T04:48:04;2.20;99.90
21216;DHT22;10765;50.954;5.322;2023-12-07T04:50:31;2.10;99.90
21216;DHT22;10765;50.954;5.322;2023-12-07T04:52:58;2.20;99.90
21216;DHT22;10765;50.954;5.322;2023-12-07T04:55:25;2.10;99.90
21216;DHT22;10765;50.954;5.322;2023-12-07T04:57:52;2.10;99.90
21216;DHT22;10765;50.954;5.322;2023-12-07T05:00:19;2.10;99.90
21216;DHT22;10765;50.954;5.322;2023-12-07T05:02:48;2.20;99.90
21216;DHT22;10765;50.954;5.322;2023-12-07T05:05:15;2.30;99.90
21216;DHT22;10765;50.954;5.322;2023-12-07T05:07:42;2.40;99.90
21216;DHT22;10765;50.954;5.322;2023-12-07T05:10:09;2.00;99.90
21216;DHT22;10765;50.954;5.322;2023-12-07T05:12:36;1.90;99.90
21216;DHT22;10765;50.954;5.322;2023-12-07T05:15:03;1.80;99.90
21216;DHT22;10765;50.954;5.322;2023-12-07T05:17:31;1.70;99.90
21216;DHT22;10765;50.954;5.322;2023-12-07T05:20:00;1.70;99.90
21216;DHT22;10765;50.954;5.322;2023-12-07T05:22:27;1.70;99.90
21216;DHT22;10765;50.954;5.322;2023-12-07T05:24:54;1.80;99.90
21216;DHT22;10765;50.954;5.322;2023-12-07T05:27:21;1.80;99.90
21216;DHT22;10765;50.954;5.322;2023-12-07T05:29:48;1.90;99.90
21216;DHT22;10765;50.954;5.322;2023-12-07T05:32:15;1.90;99.90
21216;DHT22;10765;50.954;5.322;2023-12-07T05:34:42;1.90;99.90
21216;DHT22;10765;50.954;5.322;2023-12-07T05:37:10;2.00;99.90
21216;DHT22;10765;50.954;5.322;2023-12-07T05:39:37;2.10;99.90
21216;DHT22;10765;50.954;5.322;2023-12-07T05:42:05;2.20;99.90
21216;DHT22;10765;50.954;5.322;2023-12-07T05:44:32;2.20;99.90
21216;DHT22;10765;50.954;5.322;2023-12-07T05:46:59;2.40;99.90
21216;DHT22;10765;50.954;5.322;2023-12-07T05:49:26;2.40;99.90
21216;DHT22;10765;50.954;5.322;2023-12-07T05:51:53;2.40;99.90
21216;DHT22;10765;50.954;5.322;2023-12-07T05:54:21;2.60;99.90
21216;DHT22;10765;50.954;5.322;2023-12-07T05:56:48;2.70;99.90
21216;DHT22;10765;50.954;5.322;2023-12-07T05:59:15;2.70;99.90
21216;DHT22;10765;50.954;5.322;2023-12-07T06:01:42;2.70;99.90
21216;DHT22;10765;50.954;5.322;2023-12-07T06:04:09;2.60;99.90
21216;DHT22;10765;50.954;5.322;2023-12-07T06:06:37;2.60;99.90
21216;DHT22;10765;50.954;5.322;2023-12-07T06:09:04;2.60;99.90
21216;DHT22;10765;50.954;5.322;2023-12-07T06:11:33;2.50;99.90
21216;DHT22;10765;50.954;5.322;2023-12-07T06:14:00;2.50;99.90
21216;DHT22;10765;50.954;5.322;2023-12-07T06:16:27;2.60;99.90
21216;DHT22;10765;50.954;5.322;2023-12-07T06:18:54;2.60;99.90
21216;DHT22;10765;50.954;5.322;2023-12-07T06:21:21;2.50;99.90
21216;DHT22;10765;50.954;5.322;2023-12-07T06:23:48;2.50;99.90
21216;DHT22;10765;50.954;5.322;2023-12-07T06:26:14;2.50;99.90
21216;DHT22;10765;50.954;5.322;2023-12-07T06:28:43;2.50;99.90
21216;DHT22;10765;50.954;5.322;2023-12-07T06:31:11;2.30;99.90
21216;DHT22;10765;50.954;5.322;2023-12-07T06:33:38;2.10;99.90
21216;DHT22;10765;50.954;5.322;2023-12-07T06:36:05;2.20;99.90
21216;DHT22;10765;50.954;5.322;2023-12-07T06:38:32;2.30;99.90
21216;DHT22;10765;50.954;5.322;2023-12-07T06:40:59;2.30;99.90
21216;DHT22;10765;50.954;5.322;2023-12-07T06:43:26;2.20;99.90
21216;DHT22;10765;50.954;5.322;2023-12-07T06:45:54;2.30;99.90
21216;DHT22;10765;50.954;5.322;2023-12-07T06:48:22;2.30;99.90
21216;DHT22;10765;50.954;5.322;2023-12-07T06:50:48;2.30;99.90
21216;DHT22;10765;50.954;5.322;2023-12-07T06:53:15;2.30;99.90
21216;DHT22;10765;50.954;5.322;2023-12-07T06:55:44;2.30;99.90
21216;DHT22;10765;50.954;5.322;2023-12-07T06:58:11;2.40;99.90
21216;DHT22;10765;50.954;5.322;2023-12-07T07:00:37;2.30;99.90
21216;DHT22;10765;50.954;5.322;2023-12-07T07:03:06;2.30;99.90
21216;DHT22;10765;50.954;5.322;2023-12-07T07:05:33;2.40;99.90
21216;DHT22;10765;50.954;5.322;2023-12-07T07:07:59;2.50;99.90
21216;DHT22;10765;50.954;5.322;2023-12-07T07:10:26;2.50;99.90
21216;DHT22;10765;50.954;5.322;2023-12-07T07:12:53;2.50;99.90
21216;DHT22;10765;50.954;5.322;2023-12-07T07:15:20;2.60;99.90
21216;DHT22;10765;50.954;5.322;2023-12-07T07:17:48;2.60;99.90
21216;DHT22;10765;50.954;5.322;2023-12-07T07:20:17;2.50;99.90
21216;DHT22;10765;50.954;5.322;2023-12-07T07:22:44;2.40;99.90
21216;DHT22;10765;50.954;5.322;2023-12-07T07:25:10;2.30;99.90
21216;DHT22;10765;50.954;5.322;2023-12-07T07:27:37;2.30;99.90
21216;DHT22;10765;50.954;5.322;2023-12-07T07:30:06;2.30;99.90
21216;DHT22;10765;50.954;5.322;2023-12-07T07:32:33;2.20;99.90
21216;DHT22;10765;50.954;5.322;2023-12-07T07:35:01;2.20;99.90
21216;DHT22;10765;50.954;5.322;2023-12-07T07:37:29;2.10;99.90
21216;DHT22;10765;50.954;5.322;2023-12-07T07:39:56;2.20;99.90
21216;DHT22;10765;50.954;5.322;2023-12-07T07:42:23;2.20;99.90
21216;DHT22;10765;50.954;5.322;2023-12-07T07:44:49;2.30;99.90
21216;DHT22;10765;50.954;5.322;2023-12-07T07:47:16;2.20;99.90
21216;DHT22;10765;50.954;5.322;2023-12-07T07:49:43;2.30;99.90
21216;DHT22;10765;50.954;5.322;2023-12-07T07:52:10;2.30;99.90
21216;DHT22;10765;50.954;5.322;2023-12-07T07:54:38;2.30;99.90
21216;DHT22;10765;50.954;5.322;2023-12-07T07:57:05;2.20;99.90
21216;DHT22;10765;50.954;5.322;2023-12-07T07:59:32;2.20;99.90
21216;DHT22;10765;50.954;5.322;2023-12-07T08:01:59;2.30;99.90
21216;DHT22;10765;50.954;5.322;2023-12-07T08:04:26;2.40;99.90
21216;DHT22;10765;50.954;5.322;2023-12-07T08:06:53;2.60;99.90
21216;DHT22;10765;50.954;5.322;2023-12-07T08:09:20;2.60;99.90
21216;DHT22;10765;50.954;5.322;2023-12-07T08:11:48;2.50;99.90
21216;DHT22;10765;50.954;5.322;2023-12-07T08:14:15;2.50;99.90
21216;DHT22;10765;50.954;5.322;2023-12-07T08:16:43;2.30;99.90
21216;DHT22;10765;50.954;5.322;2023-12-07T08:19:12;2.30;99.90
21216;DHT22;10765;50.954;5.322;2023-12-07T08:21:39;2.50;99.90
21216;DHT22;10765;50.954;5.322;2023-12-07T08:24:06;2.70;99.90
21216;DHT22;10765;50.954;5.322;2023-12-07T08:26:33;2.90;99.90
21216;DHT22;10765;50.954;5.322;2023-12-07T08:29:02;3.30;99.90
21216;DHT22;10765;50.954;5.322;2023-12-07T08:31:29;4.50;99.90
21216;DHT22;10765;50.954;5.322;2023-12-07T08:33:56;5.50;99.90
21216;DHT22;10765;50.954;5.322;2023-12-07T08:36:23;6.20;99.90
21216;DHT22;10765;50.954;5.322;2023-12-07T08:38:50;7.10;99.90
21216;DHT22;10765;50.954;5.322;2023-12-07T08:41:17;8.20;1.00
21216;DHT22;10765;50.954;5.322;2023-12-07T08:43:44;8.90;99.90
21216;DHT22;10765;50.954;5.322;2023-12-07T08:46:12;9.10;99.90
21216;DHT22;10765;50.954;5.322;2023-12-07T08:48:39;10.20;99.90
21216;DHT22;10765;50.954;5.322;2023-12-07T08:51:07;11.00;1.00
21216;DHT22;10765;50.954;5.322;2023-12-07T08:53:34;11.30;1.00
21216;DHT22;10765;50.954;5.322;2023-12-07T08:56:01;11.70;1.00
21216;DHT22;10765;50.954;5.322;2023-12-07T08:58:28;12.10;1.00
21216;DHT22;10765;50.954;5.322;2023-12-07T09:00:54;12.50;1.00
21216;DHT22;10765;50.954;5.322;2023-12-07T09:03:23;13.40;1.00
21216;DHT22;10765;50.954;5.322;2023-12-07T09:05:53;14.00;1.00
21216;DHT22;10765;50.954;5.322;2023-12-07T09:08:19;14.40;1.00
21216;DHT22;10765;50.954;5.322;2023-12-07T09:10:46;14.30;1.00
21216;DHT22;10765;50.954;5.322;2023-12-07T09:13:15;14.20;1.00
21216;DHT22;10765;50.954;5.322;2023-12-07T09:15:42;14.40;1.00
21216;DHT22;10765;50.954;5.322;2023-12-07T09:18:09;14.10;1.00
21216;DHT22;10765;50.954;5.322;2023-12-07T09:20:39;14.10;1.00
21216;DHT22;10765;50.954;5.322;2023-12-07T09:23:11;14.10;1.00
21216;DHT22;10765;50.954;5.322;2023-12-07T09:25:38;14.00;1.00
21216;DHT22;10765;50.954;5.322;2023-12-07T09:28:06;14.40;1.00
21216;DHT22;10765;50.954;5.322;2023-12-07T09:30:33;14.70;1.00
21216;DHT22;10765;50.954;5.322;2023-12-07T09:33:01;15.00;1.00
21216;DHT22;10765;50.954;5.322;2023-12-07T09:35:29;13.90;1.00
21216;DHT22;10765;50.954;5.322;2023-12-07T09:37:57;13.30;1.00
21216;DHT22;10765;50.954;5.322;2023-12-07T09:40:24;12.60;1.00
21216;DHT22;10765;50.954;5.322;2023-12-07T09:42:51;11.20;1.00
21216;DHT22;10765;50.954;5.322;2023-12-07T09:45:19;10.10;1.00
21216;DHT22;10765;50.954;5.322;2023-12-07T09:47:47;9.30;1.00
21216;DHT22;10765;50.954;5.322;2023-12-07T09:50:16;8.60;1.00
21216;DHT22;10765;50.954;5.322;2023-12-07T09:52:44;8.70;1.00
21216;DHT22;10765;50.954;5.322;2023-12-07T09:55:12;8.80;1.00
21216;DHT22;10765;50.954;5.322;2023-12-07T09:57:39;8.60;1.00
21216;DHT22;10765;50.954;5.322;2023-12-07T10:00:07;8.50;1.00
21216;DHT22;10765;50.954;5.322;2023-12-07T10:02:37;8.50;1.00
21216;DHT22;10765;50.954;5.322;2023-12-07T10:05:05;8.30;1.00
21216;DHT22;10765;50.954;5.322;2023-12-07T10:07:33;8.10;1.00
21216;DHT22;10765;50.954;5.322;2023-12-07T10:10:02;8.50;1.00
21216;DHT22;10765;50.954;5.322;2023-12-07T10:12:31;8.60;1.00
21216;DHT22;10765;50.954;5.322;2023-12-07T10:14:59;8.30;1.00
21216;DHT22;10765;50.954;5.322;2023-12-07T10:17:43;8.20;1.00
21216;DHT22;10765;50.954;5.322;2023-12-07T10:20:12;8.60;1.00
21216;DHT22;10765;50.954;5.322;2023-12-07T10:22:39;8.50;1.00
21216;DHT22;10765;50.954;5.322;2023-12-07T10:25:07;8.20;1.00
21216;DHT22;10765;50.954;5.322;2023-12-07T10:27:38;8.40;1.00
21216;DHT22;10765;50.954;5.322;2023-12-07T10:30:08;8.40;1.00
21216;DHT22;10765;50.954;5.322;2023-12-07T10:32:36;9.00;1.00
21216;DHT22;10765;50.954;5.322;2023-12-07T10:35:06;9.40;1.00
21216;DHT22;10765;50.954;5.322;2023-12-07T10:37:34;9.90;1.00
21216;DHT22;10765;50.954;5.322;2023-12-07T10:40:02;10.00;1.00
21216;DHT22;10765;50.954;5.322;2023-12-07T10:42:33;9.30;1.00
21216;DHT22;10765;50.954;5.322;2023-12-07T10:45:06;9.30;1.00
21216;DHT22;10765;50.954;5.322;2023-12-07T10:47:36;9.00;1.00
21216;DHT22;10765;50.954;5.322;2023-12-07T10:50:06;9.00;1.00
21216;DHT22;10765;50.954;5.322;2023-12-07T10:52:37;10.10;1.00
21216;DHT22;10765;50.954;5.322;2023-12-07T10:55:07;10.40;1.00
21216;DHT22;10765;50.954;5.322;2023-12-07T10:57:36;10.50;1.00
21216;DHT22;10765;50.954;5.322;2023-12-07T11:00:08;10.40;1.00
21216;DHT22;10765;50.954;5.322;2023-12-07T11:02:36;9.30;1.00
21216;DHT22;10765;50.954;5.322;2023-12-07T11:05:06;9.10;1.00
21216;DHT22;10765;50.954;5.322;2023-12-07T11:07:39;9.60;1.00
21216;DHT22;10765;50.954;5.322;2023-12-07T11:10:14;9.20;1.00
21216;DHT22;10765;50.954;5.322;2023-12-07T11:12:47;8.70;1.00
21216;DHT22;10765;50.954;5.322;2023-12-07T11:15:17;8.80;1.00
21216;DHT22;10765;50.954;5.322;2023-12-07T11:17:51;9.30;1.00
21216;DHT22;10765;50.954;5.322;2023-12-07T11:20:20;10.10;1.00
21216;DHT22;10765;50.954;5.322;2023-12-07T11:22:48;9.60;1.00
21216;DHT22;10765;50.954;5.322;2023-12-07T11:25:16;8.80;1.00
21216;DHT22;10765;50.954;5.322;2023-12-07T11:27:45;8.70;1.00
21216;DHT22;10765;50.954;5.322;2023-12-07T11:30:15;7.90;1.00
21216;DHT22;10765;50.954;5.322;2023-12-07T11:32:43;7.90;1.00
21216;DHT22;10765;50.954;5.322;2023-12-07T11:35:14;7.80;1.00
21216;DHT22;10765;50.954;5.322;2023-12-07T11:38:05;7.80;1.00
21216;DHT22;10765;50.954;5.322;2023-12-07T11:40:35;8.30;1.00
21216;DHT22;10765;50.954;5.322;2023-12-07T11:43:02;8.10;1.00
21216;DHT22;10765;50.954;5.322;2023-12-07T11:45:41;8.00;1.00
21216;DHT22;10765;50.954;5.322;2023-12-07T11:48:10;7.60;1.00
21216;DHT22;10765;50.954;5.322;2023-12-07T11:50:59;7.30;1.00
21216;DHT22;10765;50.954;5.322;2023-12-07T11:53:27;7.30;1.00
21216;DHT22;10765;50.954;5.322;2023-12-07T11:55:56;7.10;1.00
21216;DHT22;10765;50.954;5.322;2023-12-07T11:58:24;7.00;1.00
21216;DHT22;10765;50.954;5.322;2023-12-07T12:00:54;6.90;1.00
21216;DHT22;10765;50.954;5.322;2023-12-07T12:03:22;6.90;1.00
21216;DHT22;10765;50.954;5.322;2023-12-07T12:05:49;6.90;1.00
21216;DHT22;10765;50.954;5.322;2023-12-07T12:08:16;7.10;1.00
21216;DHT22;10765;50.954;5.322;2023-12-07T12:10:43;7.10;1.00
21216;DHT22;10765;50.954;5.322;2023-12-07T12:13:11;7.20;1.00
21216;DHT22;10765;50.954;5.322;2023-12-07T12:15:38;7.60;1.00
21216;DHT22;10765;50.954;5.322;2023-12-07T12:18:07;7.80;1.00
21216;DHT22;10765;50.954;5.322;2023-12-07T12:20:35;7.90;1.00
21216;DHT22;10765;50.954;5.322;2023-12-07T12:23:02;8.10;1.00
21216;DHT22;10765;50.954;5.322;2023-12-07T12:25:30;8.40;1.00
21216;DHT22;10765;50.954;5.322;2023-12-07T12:27:58;8.80;1.00
21216;DHT22;10765;50.954;5.322;2023-12-07T12:30:28;8.90;1.00
21216;DHT22;10765;50.954;5.322;2023-12-07T12:32:56;8.70;1.00
21216;DHT22;10765;50.954;5.322;2023-12-07T12:35:24;8.40;1.00
21216;DHT22;10765;50.954;5.322;2023-12-07T12:37:51;8.30;1.00
21216;DHT22;10765;50.954;5.322;2023-12-07T12:40:21;7.90;1.00
21216;DHT22;10765;50.954;5.322;2023-12-07T12:42:50;7.60;1.00
21216;DHT22;10765;50.954;5.322;2023-12-07T12:45:17;7.20;1.00
21216;DHT22;10765;50.954;5.322;2023-12-07T12:47:46;6.90;1.00
21216;DHT22;10765;50.954;5.322;2023-12-07T12:50:34;6.80;1.00
21216;DHT22;10765;50.954;5.322;2023-12-07T12:53:03;6.80;1.00
21216;DHT22;10765;50.954;5.322;2023-12-07T12:55:31;6.80;1.00
21216;DHT22;10765;50.954;5.322;2023-12-07T12:57:58;6.80;1.00
21216;DHT22;10765;50.954;5.322;2023-12-07T13:00:25;6.80;1.00
21216;DHT22;10765;50.954;5.322;2023-12-07T13:02:52;6.70;1.00
21216;DHT22;10765;50.954;5.322;2023-12-07T13:05:19;6.70;1.00
21216;DHT22;10765;50.954;5.322;2023-12-07T13:07:48;6.50;1.00
21216;DHT22;10765;50.954;5.322;2023-12-07T13:10:15;6.50;1.00
21216;DHT22;10765;50.954;5.322;2023-12-07T13:12:41;6.40;1.00
21216;DHT22;10765;50.954;5.322;2023-12-07T13:15:09;6.40;1.00
21216;DHT22;10765;50.954;5.322;2023-12-07T13:17:36;6.40;1.00
21216;DHT22;10765;50.954;5.322;2023-12-07T13:20:05;6.40;1.00
21216;DHT22;10765;50.954;5.322;2023-12-07T13:22:33;6.40;1.00
21216;DHT22;10765;50.954;5.322;2023-12-07T13:25:01;6.40;1.00
21216;DHT22;10765;50.954;5.322;2023-12-07T13:27:28;6.40;1.00
21216;DHT22;10765;50.954;5.322;2023-12-07T13:29:55;6.40;1.00
21216;DHT22;10765;50.954;5.322;2023-12-07T13:32:22;6.30;1.00
21216;DHT22;10765;50.954;5.322;2023-12-07T13:34:49;6.30;1.00
21216;DHT22;10765;50.954;5.322;2023-12-07T13:37:16;6.20;1.00
21216;DHT22;10765;50.954;5.322;2023-12-07T13:39:43;6.20;1.00
21216;DHT22;10765;50.954;5.322;2023-12-07T13:42:11;6.10;1.00
21216;DHT22;10765;50.954;5.322;2023-12-07T13:44:38;6.10;1.00
21216;DHT22;10765;50.954;5.322;2023-12-07T13:47:05;6.10;1.00
21216;DHT22;10765;50.954;5.322;2023-12-07T13:49:32;6.10;1.00
21216;DHT22;10765;50.954;5.322;2023-12-07T13:51:58;6.10;1.00
21216;DHT22;10765;50.954;5.322;2023-12-07T13:54:25;6.10;1.00
21216;DHT22;10765;50.954;5.322;2023-12-07T13:56:52;6.10;1.00
21216;DHT22;10765;50.954;5.322;2023-12-07T13:59:21;6.20;1.00
21216;DHT22;10765;50.954;5.322;2023-12-07T14:01:48;6.10;1.00
21216;DHT22;10765;50.954;5.322;2023-12-07T14:04:15;6.10;1.00
21216;DHT22;10765;50.954;5.322;2023-12-07T14:06:41;6.10;1.00
21216;DHT22;10765;50.954;5.322;2023-12-07T14:09:08;6.10;1.00
21216;DHT22;10765;50.954;5.322;2023-12-07T14:11:36;6.10;1.00
21216;DHT22;10765;50.954;5.322;2023-12-07T14:14:05;6.00;1.00
21216;DHT22;10765;50.954;5.322;2023-12-07T14:16:32;6.00;1.00
21216;DHT22;10765;50.954;5.322;2023-12-07T14:18:59;6.00;1.00
21216;DHT22;10765;50.954;5.322;2023-12-07T14:21:25;6.00;1.00
21216;DHT22;10765;50.954;5.322;2023-12-07T14:23:52;6.00;1.00
21216;DHT22;10765;50.954;5.322;2023-12-07T14:26:20;6.00;1.00
21216;DHT22;10765;50.954;5.322;2023-12-07T14:28:48;6.00;1.00
21216;DHT22;10765;50.954;5.322;2023-12-07T14:31:15;6.00;1.00
21216;DHT22;10765;50.954;5.322;2023-12-07T14:33:45;5.90;1.00
21216;DHT22;10765;50.954;5.322;2023-12-07T14:36:12;5.80;1.00
21216;DHT22;10765;50.954;5.322;2023-12-07T14:38:39;5.80;1.00
21216;DHT22;10765;50.954;5.322;2023-12-07T14:41:06;5.80;1.00
21216;DHT22;10765;50.954;5.322;2023-12-07T14:43:33;5.70;1.00
21216;DHT22;10765;50.954;5.322;2023-12-07T14:46:00;5.80;1.00
21216;DHT22;10765;50.954;5.322;2023-12-07T14:48:28;5.80;1.00
21216;DHT22;10765;50.954;5.322;2023-12-07T14:50:57;5.60;1.00
21216;DHT22;10765;50.954;5.322;2023-12-07T14:53:24;5.60;1.00
21216;DHT22;10765;50.954;5.322;2023-12-07T14:55:51;5.60;1.00
21216;DHT22;10765;50.954;5.322;2023-12-07T14:58:18;5.60;1.00
21216;DHT22;10765;50.954;5.322;2023-12-07T15:00:45;5.50;1.00
21216;DHT22;10765;50.954;5.322;2023-12-07T15:03:12;5.40;1.00
21216;DHT22;10765;50.954;5.322;2023-12-07T15:05:39;5.30;1.00
21216;DHT22;10765;50.954;5.322;2023-12-07T15:08:08;5.30;1.00
21216;DHT22;10765;50.954;5.322;2023-12-07T15:10:35;5.20;1.00
21216;DHT22;10765;50.954;5.322;2023-12-07T15:13:02;5.20;1.00
21216;DHT22;10765;50.954;5.322;2023-12-07T15:15:29;5.10;1.00
21216;DHT22;10765;50.954;5.322;2023-12-07T15:17:56;5.10;1.00
21216;DHT22;10765;50.954;5.322;2023-12-07T15:20:23;5.00;1.00
21216;DHT22;10765;50.954;5.322;2023-12-07T15:22:50;5.00;1.00
21216;DHT22;10765;50.954;5.322;2023-12-07T15:25:19;5.00;1.00
21216;DHT22;10765;50.954;5.322;2023-12-07T15:27:45;4.90;1.00
21216;DHT22;10765;50.954;5.322;2023-12-07T15:30:13;4.80;1.00
21216;DHT22;10765;50.954;5.322;2023-12-07T15:32:41;4.80;1.00
21216;DHT22;10765;50.954;5.322;2023-12-07T15:35:08;4.70;1.00
21216;DHT22;10765;50.954;5.322;2023-12-07T15:37:35;4.70;1.00
21216;DHT22;10765;50.954;5.322;2023-12-07T15:40:02;4.80;1.00
21216;DHT22;10765;50.954;5.322;2023-12-07T15:42:31;4.80;1.00
21216;DHT22;10765;50.954;5.322;2023-12-07T15:44:58;4.80;4.50
21216;DHT22;10765;50.954;5.322;2023-12-07T15:47:25;4.80;1.00
21216;DHT22;10765;50.954;5.322;2023-12-07T15:49:51;4.70;1.00
21216;DHT22;10765;50.954;5.322;2023-12-07T15:52:18;4.70;1.00
21216;DHT22;10765;50.954;5.322;2023-12-07T15:54:45;4.60;1.00
21216;DHT22;10765;50.954;5.322;2023-12-07T15:57:12;4.60;1.00